createdAt,value
2018-03-08T00:02:27.223Z,87.25
2018-03-08T00:04:53.116Z,87.12
2018-03-08T00:07:22.724Z,86.85
2018-03-08T00:09:48.608Z,86.67
2018-03-08T00:12:16.463Z,86.72
2018-03-08T00:14:42.338Z,86.74
2018-03-08T00:17:12.196Z,86.08
2018-03-08T00:19:38.086Z,86.51
2018-03-08T00:22:03.960Z,86.28
2018-03-08T00:24:29.810Z,86.04
2018-03-08T00:26:55.697Z,85.93
2018-03-08T00:29:22.162Z,85.70
2018-03-08T00:31:48.078Z,85.47
2018-03-08T00:34:16.758Z,85.45
2018-03-08T00:36:42.660Z,85.23
2018-03-08T00:39:11.344Z,85.33
2018-03-08T00:41:37.233Z,85.55
2018-03-08T00:44:06.097Z,85.45
2018-03-08T00:46:31.981Z,85.38
2018-03-08T00:49:00.712Z,85.50
2018-03-08T00:51:26.583Z,85.41
2018-03-08T00:53:55.385Z,85.21
2018-03-08T00:56:21.263Z,85.39
2018-03-08T00:58:47.190Z,85.46
2018-03-08T01:01:13.087Z,85.61
2018-03-08T01:03:39.008Z,85.53
2018-03-08T01:06:08.784Z,85.67
2018-03-08T01:08:34.681Z,85.55
2018-03-08T01:11:03.869Z,85.32
2018-03-08T01:13:29.766Z,85.02
2018-03-08T01:15:57.465Z,84.91
2018-03-08T01:18:23.325Z,84.46
2018-03-08T01:20:53.206Z,84.22
2018-03-08T01:23:19.111Z,84.21
2018-03-08T01:25:46.991Z,84.16
2018-03-08T01:28:12.916Z,84.12
2018-03-08T01:30:41.892Z,84.35
2018-03-08T01:33:07.778Z,83.84
2018-03-08T01:35:33.697Z,83.79
2018-03-08T01:37:59.601Z,83.63
2018-03-08T01:40:25.453Z,83.37
2018-03-08T01:42:52.659Z,83.38
2018-03-08T01:45:18.541Z,83.93
2018-03-08T01:47:47.969Z,84.04
2018-03-08T01:50:13.835Z,84.32
2018-03-08T01:52:41.938Z,84.63
2018-03-08T01:55:07.841Z,85.02
2018-03-08T01:57:36.737Z,84.97
2018-03-08T02:00:02.680Z,85.16
2018-03-08T02:02:31.638Z,85.43
2018-03-08T02:04:57.530Z,85.69
2018-03-08T02:07:26.204Z,85.80
2018-03-08T02:09:52.109Z,86.01
2018-03-08T02:12:18.033Z,86.04
2018-03-08T02:14:43.892Z,86.40
2018-03-08T02:17:09.781Z,86.29
2018-03-08T02:19:39.301Z,86.17
2018-03-08T02:22:05.197Z,85.95
2018-03-08T02:24:34.189Z,85.84
2018-03-08T02:27:00.064Z,85.66
2018-03-08T02:29:27.801Z,85.41
2018-03-08T02:31:53.673Z,85.28
2018-03-08T02:34:22.984Z,84.94
2018-03-08T02:36:48.891Z,84.75
2018-03-08T02:39:18.491Z,84.46
2018-03-08T02:41:44.385Z,84.40
2018-03-08T02:44:13.298Z,84.51
2018-03-08T02:46:39.185Z,84.39
2018-03-08T02:49:05.076Z,84.45
2018-03-08T02:51:30.968Z,84.27
2018-03-08T02:53:56.840Z,84.22
2018-03-08T02:56:23.855Z,84.19
2018-03-08T02:58:49.735Z,84.25
2018-03-08T03:01:19.500Z,83.96
2018-03-08T03:03:45.389Z,83.97
2018-03-08T03:06:13.510Z,84.18
2018-03-08T03:08:39.402Z,84.20
2018-03-08T03:11:09.106Z,84.45
2018-03-08T03:13:34.989Z,84.61
2018-03-08T03:16:02.735Z,84.52
2018-03-08T03:18:28.607Z,84.61
2018-03-08T03:20:58.348Z,84.86
2018-03-08T03:23:24.205Z,85.01
2018-03-08T03:25:50.095Z,85.20
2018-03-08T03:28:15.969Z,85.25
2018-03-08T03:30:41.835Z,85.60
2018-03-08T03:33:08.694Z,85.65
2018-03-08T03:35:34.567Z,85.62
2018-03-08T03:38:04.189Z,85.65
2018-03-08T03:40:30.062Z,85.47
2018-03-08T03:42:59.034Z,85.48
2018-03-08T03:45:24.902Z,85.60
2018-03-08T03:47:52.684Z,85.81
2018-03-08T03:50:18.568Z,85.62
2018-03-08T03:52:47.585Z,85.79
2018-03-08T03:55:13.488Z,85.87
2018-03-08T03:57:42.429Z,85.62
2018-03-08T04:00:10.782Z,85.76
2018-03-08T04:02:39.129Z,85.54
2018-03-08T04:05:05.025Z,85.90
2018-03-08T04:07:30.916Z,85.83
2018-03-08T04:09:56.793Z,86.02
2018-03-08T04:12:22.793Z,85.91
2018-03-08T04:14:48.674Z,86.01
2018-03-08T04:17:14.572Z,86.13
2018-03-08T04:19:43.466Z,86.42
2018-03-08T04:22:09.364Z,86.36
2018-03-08T04:24:38.319Z,86.60
2018-03-08T04:27:04.224Z,86.51
2018-03-08T04:29:34.052Z,86.52
2018-03-08T04:31:59.932Z,86.52
2018-03-08T04:34:27.753Z,86.41
2018-03-08T04:36:53.666Z,86.02
2018-03-08T04:39:19.583Z,85.81
2018-03-08T04:41:45.456Z,85.85
2018-03-08T04:44:11.358Z,85.70
2018-03-08T04:46:40.566Z,85.85
2018-03-08T04:49:06.443Z,85.94
2018-03-08T04:51:34.235Z,85.76
2018-03-08T04:54:00.148Z,85.57
2018-03-08T04:56:29.997Z,85.39
2018-03-08T04:58:55.886Z,85.72
2018-03-08T05:01:25.096Z,86.29
2018-03-08T05:03:50.980Z,86.61
2018-03-08T05:06:17.957Z,87.04
2018-03-08T05:08:43.874Z,87.28
2018-03-08T05:11:12.634Z,87.36
2018-03-08T05:13:38.530Z,87.40
2018-03-08T05:16:04.424Z,87.46
2018-03-08T05:18:30.320Z,87.49
2018-03-08T05:20:56.224Z,87.52
2018-03-08T05:23:24.753Z,87.24
2018-03-08T05:25:50.637Z,86.90
2018-03-08T05:28:19.240Z,86.54
2018-03-08T05:30:45.172Z,86.36
2018-03-08T05:33:13.866Z,86.02
2018-03-08T05:35:39.798Z,85.79
2018-03-08T05:38:08.532Z,85.80
2018-03-08T05:40:34.442Z,85.33
2018-03-08T05:43:03.189Z,84.99
2018-03-08T05:45:29.078Z,84.88
2018-03-08T05:47:57.865Z,84.91
2018-03-08T05:50:23.770Z,85.14
2018-03-08T05:52:49.678Z,85.25
2018-03-08T05:55:15.519Z,85.31
2018-03-08T05:57:41.403Z,85.38
2018-03-08T06:00:11.065Z,85.39
2018-03-08T06:02:36.926Z,85.59
2018-03-08T06:05:06.131Z,85.76
2018-03-08T06:07:32.819Z,85.83
2018-03-08T06:09:59.948Z,85.66
2018-03-08T06:12:25.835Z,85.63
2018-03-08T06:14:55.682Z,85.33
2018-03-08T06:17:21.553Z,85.12
2018-03-08T06:19:49.401Z,85.07
2018-03-08T06:22:15.296Z,85.13
2018-03-08T06:24:45.059Z,85.35
2018-03-08T06:27:10.949Z,85.70
2018-03-08T06:29:36.831Z,86.21
2018-03-08T06:32:02.745Z,86.40
2018-03-08T06:34:28.612Z,86.56
2018-03-08T06:36:55.963Z,86.92
2018-03-08T06:39:21.827Z,86.68
2018-03-08T06:41:51.567Z,86.66
2018-03-08T06:44:17.459Z,86.90
2018-03-08T06:46:46.366Z,86.10
2018-03-08T06:49:12.281Z,86.03
2018-03-08T06:51:39.047Z,85.91
2018-03-08T06:54:04.956Z,85.80
2018-03-08T06:56:33.723Z,85.53
2018-03-08T06:58:59.575Z,84.98
2018-03-08T07:01:28.238Z,83.40
2018-03-08T07:03:54.160Z,81.07
2018-03-08T07:06:20.039Z,79.20
2018-03-08T07:08:45.920Z,77.71
2018-03-08T07:11:11.784Z,75.77
2018-03-08T07:13:40.803Z,73.74
2018-03-08T07:16:06.792Z,73.28
2018-03-08T07:18:36.670Z,71.50
2018-03-08T07:21:02.553Z,69.52
2018-03-08T07:23:30.433Z,68.28
2018-03-08T07:25:56.262Z,67.13
2018-03-08T07:28:25.261Z,67.28
2018-03-08T07:30:51.131Z,65.34
2018-03-08T07:33:20.990Z,64.20
2018-03-08T07:35:46.870Z,65.78
2018-03-08T07:38:14.046Z,66.55
2018-03-08T07:40:39.901Z,66.85
2018-03-08T07:43:05.769Z,66.33
2018-03-08T07:45:31.650Z,65.17
2018-03-08T07:47:57.502Z,66.79
2018-03-08T07:50:27.235Z,65.21
2018-03-08T07:52:53.089Z,66.42
2018-03-08T07:55:22.029Z,64.95
2018-03-08T07:57:47.883Z,63.80
2018-03-08T08:00:15.714Z,63.58
2018-03-08T08:02:41.566Z,62.92
2018-03-08T08:05:23.031Z,63.27
2018-03-08T08:08:01.212Z,62.99
2018-03-08T08:10:27.087Z,61.47
2018-03-08T08:12:52.957Z,58.37
2018-03-08T08:15:18.863Z,57.55
2018-03-08T08:17:44.790Z,57.56
2018-03-08T08:20:10.685Z,55.61
2018-03-08T08:22:36.598Z,55.80
2018-03-08T08:25:02.527Z,55.23
2018-03-08T08:27:28.447Z,55.48
2018-03-08T08:29:54.330Z,55.43
2018-03-08T08:32:20.188Z,53.94
2018-03-08T08:34:46.091Z,53.57
2018-03-08T08:37:11.986Z,52.15
2018-03-08T08:39:37.842Z,53.81
2018-03-08T08:42:03.734Z,53.50
2018-03-08T08:44:29.590Z,54.06
2018-03-08T08:46:55.494Z,53.77
2018-03-08T08:49:22.196Z,53.99
2018-03-08T08:51:48.175Z,53.37
2018-03-08T08:54:14.053Z,52.33
2018-03-08T08:56:39.925Z,50.56
2018-03-08T08:59:05.802Z,50.07
2018-03-08T09:01:31.682Z,51.94
2018-03-08T09:03:57.591Z,51.51
2018-03-08T09:06:23.453Z,49.84
2018-03-08T09:08:52.343Z,49.69
2018-03-08T09:11:18.217Z,50.87
2018-03-08T09:13:47.142Z,51.83
2018-03-08T09:16:13.028Z,55.51
2018-03-08T09:18:40.602Z,57.60
2018-03-08T09:21:06.500Z,56.07
2018-03-08T09:23:36.321Z,57.85
2018-03-08T09:26:02.243Z,56.77
2018-03-08T09:28:30.034Z,55.63
2018-03-08T09:30:55.901Z,53.71
2018-03-08T09:33:21.777Z,54.31
2018-03-08T09:35:47.690Z,54.84
2018-03-08T09:38:13.568Z,52.47
2018-03-08T09:40:41.534Z,54.29
2018-03-08T09:43:07.405Z,57.98
2018-03-08T09:45:35.938Z,60.27
2018-03-08T09:48:01.828Z,62.48
2018-03-08T09:50:30.421Z,63.05
2018-03-08T09:52:56.275Z,64.08
2018-03-08T09:55:24.970Z,63.46
2018-03-08T09:57:50.841Z,63.14
2018-03-08T10:00:18.767Z,63.33
2018-03-08T10:02:44.638Z,63.10
2018-03-08T10:05:10.526Z,61.71
2018-03-08T10:07:37.212Z,60.73
2018-03-08T10:10:03.091Z,59.72
2018-03-08T10:12:32.383Z,59.35
2018-03-08T10:14:58.240Z,59.15
2018-03-08T10:17:27.671Z,59.62
2018-03-08T10:19:53.537Z,60.32
2018-03-08T10:22:23.328Z,59.85
2018-03-08T10:24:49.176Z,59.23
2018-03-08T10:27:17.050Z,58.71
2018-03-08T10:29:42.902Z,57.69
2018-03-08T10:32:12.824Z,58.55
2018-03-08T10:34:38.702Z,56.55
2018-03-08T10:37:05.640Z,54.89
2018-03-08T10:39:31.533Z,56.18
2018-03-08T10:42:01.170Z,57.63
2018-03-08T10:44:27.007Z,53.83
2018-03-08T10:46:52.868Z,51.57
2018-03-08T10:49:19.080Z,52.65
2018-03-08T10:51:44.984Z,53.74
2018-03-08T10:54:12.268Z,51.51
2018-03-08T10:56:38.119Z,53.60
2018-03-08T10:59:07.051Z,52.74
2018-03-08T11:01:32.900Z,53.37
2018-03-08T11:04:08.244Z,53.02
2018-03-08T11:06:36.038Z,51.58
2018-03-08T11:09:01.946Z,50.05
2018-03-08T11:11:27.842Z,49.50
2018-03-08T11:13:57.700Z,50.18
2018-03-08T11:16:26.484Z,49.17
2018-03-08T11:18:55.982Z,48.84
2018-03-08T11:21:25.613Z,47.79
2018-03-08T11:23:51.750Z,47.80
2018-03-08T11:26:17.638Z,47.76
2018-03-08T11:28:43.542Z,45.95
2018-03-08T11:31:09.406Z,44.74
2018-03-08T11:33:35.291Z,44.47
2018-03-08T11:36:01.203Z,44.56
2018-03-08T11:38:27.083Z,45.11
2018-03-08T11:40:52.954Z,46.19
2018-03-08T11:43:18.834Z,46.73
2018-03-08T11:45:44.756Z,47.47
2018-03-08T11:48:10.754Z,47.71
2018-03-08T11:50:36.545Z,46.71
2018-03-08T11:53:02.421Z,46.16
2018-03-08T11:55:31.904Z,45.61
2018-03-08T11:57:57.811Z,44.72
2018-03-08T12:00:23.686Z,46.77
2018-03-08T12:02:49.562Z,46.96
2018-03-08T12:05:15.466Z,47.60
2018-03-08T12:07:42.897Z,47.92
2018-03-08T12:10:08.784Z,46.88
2018-03-08T12:12:37.781Z,46.97
2018-03-08T12:15:03.678Z,47.14
2018-03-08T12:17:32.393Z,46.44
2018-03-08T12:19:58.258Z,44.76
2018-03-08T12:22:26.713Z,43.05
2018-03-08T12:24:52.634Z,43.88
2018-03-08T12:27:21.420Z,44.47
2018-03-08T12:29:47.292Z,44.26
2018-03-08T12:32:15.984Z,44.85
2018-03-08T12:34:41.902Z,43.00
2018-03-08T12:37:07.767Z,42.64
2018-03-08T12:39:33.681Z,42.83
2018-03-08T12:41:59.584Z,42.67
2018-03-08T12:44:29.022Z,42.07
2018-03-08T12:46:54.897Z,42.04
2018-03-08T12:49:23.897Z,42.06
2018-03-08T12:51:49.808Z,40.26
2018-03-08T12:54:17.448Z,40.63
2018-03-08T12:56:43.328Z,41.57
2018-03-08T12:59:12.797Z,41.92
2018-03-08T13:01:38.681Z,42.60
2018-03-08T13:04:07.817Z,42.05
2018-03-08T13:06:33.808Z,41.35
2018-03-08T13:09:01.514Z,40.19
2018-03-08T13:11:27.383Z,40.59
2018-03-08T13:13:53.282Z,41.14
2018-03-08T13:16:19.164Z,41.07
2018-03-08T13:18:45.027Z,40.33
2018-03-08T13:21:13.354Z,38.79
2018-03-08T13:23:39.244Z,39.51
2018-03-08T13:26:07.906Z,39.02
2018-03-08T13:28:33.828Z,38.66
2018-03-08T13:31:02.728Z,38.30
2018-03-08T13:33:28.642Z,38.32
2018-03-08T13:35:57.327Z,38.99
2018-03-08T13:38:23.202Z,39.45
2018-03-08T13:40:53.719Z,39.89
2018-03-08T13:43:19.614Z,39.86
2018-03-08T13:45:48.642Z,39.60
2018-03-08T13:48:14.534Z,40.15
2018-03-08T13:50:40.435Z,39.51
2018-03-08T13:53:06.284Z,38.23
2018-03-08T13:55:32.173Z,37.76
2018-03-08T13:57:59.349Z,37.88
2018-03-08T14:00:25.278Z,37.48
2018-03-08T14:02:54.187Z,37.56
2018-03-08T14:05:20.070Z,37.85
2018-03-08T14:07:49.929Z,37.43
2018-03-08T14:10:15.846Z,37.67
2018-03-08T14:12:42.857Z,37.34
2018-03-08T14:15:08.695Z,38.07
2018-03-08T14:17:38.248Z,38.63
2018-03-08T14:22:56.921Z,37.61
2018-03-08T14:25:22.773Z,36.99
2018-03-08T14:27:48.646Z,37.50
2018-03-08T14:30:14.540Z,37.23
2018-03-08T14:32:40.439Z,37.38
2018-03-08T14:35:06.328Z,37.47
2018-03-08T14:37:32.207Z,37.78
2018-03-08T14:39:58.117Z,38.16
2018-03-08T14:42:24.034Z,37.02
2018-03-08T14:44:49.918Z,37.02
2018-03-08T14:47:15.814Z,36.49
2018-03-08T14:49:41.689Z,37.33
2018-03-08T14:52:07.832Z,37.19
2018-03-08T14:54:33.727Z,35.65
2018-03-08T14:56:59.602Z,35.44
2018-03-08T14:59:25.513Z,36.23
2018-03-08T15:01:51.404Z,35.56
2018-03-08T15:04:17.295Z,34.73
2018-03-08T15:06:43.158Z,34.97
2018-03-08T15:09:09.035Z,35.05
2018-03-08T15:11:34.943Z,35.60
2018-03-08T15:14:00.841Z,35.36
2018-03-08T15:16:26.745Z,35.33
2018-03-08T15:18:52.636Z,35.39
2018-03-08T15:21:18.509Z,35.95
2018-03-08T15:23:44.423Z,35.89
2018-03-08T15:26:13.191Z,36.92
2018-03-08T15:28:39.115Z,36.99
2018-03-08T15:31:07.782Z,37.08
2018-03-08T15:33:33.689Z,37.81
2018-03-08T15:36:02.560Z,37.89
2018-03-08T15:38:28.458Z,38.58
2018-03-08T15:40:54.350Z,39.67
2018-03-08T15:43:20.246Z,39.46
2018-03-08T15:45:46.181Z,39.48
2018-03-08T15:48:15.334Z,40.03
2018-03-08T15:50:41.278Z,39.77
2018-03-08T15:53:11.081Z,40.57
2018-03-08T15:55:36.951Z,40.63
2018-03-08T15:58:04.082Z,40.75
2018-03-08T16:00:29.973Z,40.36
2018-03-08T16:02:59.371Z,40.81
2018-03-08T16:05:25.236Z,41.01
2018-03-08T16:10:54.181Z,41.63
2018-03-08T16:13:20.084Z,41.13
2018-03-08T16:15:45.974Z,42.03
2018-03-08T16:18:11.913Z,41.82
2018-03-08T16:20:37.790Z,42.45
2018-03-08T16:23:03.695Z,42.43
2018-03-08T16:25:29.616Z,42.58
2018-03-08T16:27:55.485Z,43.01
2018-03-08T16:30:21.399Z,43.04
2018-03-08T16:32:47.290Z,43.13
2018-03-08T16:35:13.164Z,43.63
2018-03-08T16:37:39.089Z,43.67
2018-03-08T16:40:05.014Z,43.60
2018-03-08T16:42:30.904Z,43.81
2018-03-08T16:44:56.806Z,44.06
2018-03-08T16:47:22.708Z,44.20
2018-03-08T16:49:48.599Z,44.38
2018-03-08T16:52:14.615Z,44.35
2018-03-08T16:54:40.501Z,43.88
2018-03-08T16:57:06.365Z,43.98
2018-03-08T16:59:32.288Z,43.57
2018-03-08T17:01:58.207Z,43.58
2018-03-08T17:04:24.113Z,43.55
2018-03-08T17:06:50.030Z,43.58
2018-03-08T17:09:15.935Z,43.50
2018-03-08T17:11:41.829Z,43.55
2018-03-08T17:14:07.743Z,44.23
2018-03-08T17:16:33.642Z,44.12
2018-03-08T17:18:59.525Z,44.02
2018-03-08T17:21:25.404Z,44.02
2018-03-08T17:23:51.294Z,44.00
2018-03-08T17:26:20.362Z,44.21
2018-03-08T17:28:46.256Z,43.83
2018-03-08T17:31:12.174Z,43.99
2018-03-08T17:33:38.089Z,44.01
2018-03-08T17:36:04.019Z,44.36
2018-03-08T17:38:31.139Z,44.09
2018-03-08T17:40:56.996Z,44.12
2018-03-08T17:43:25.339Z,44.25
2018-03-08T17:45:51.262Z,44.41
2018-03-08T17:48:20.790Z,44.53
2018-03-08T17:50:46.647Z,45.11
2018-03-08T17:53:16.180Z,45.31
2018-03-08T17:55:42.075Z,45.61
2018-03-08T17:58:09.194Z,45.82
2018-03-08T18:00:35.109Z,46.10
2018-03-08T18:03:03.926Z,46.51
2018-03-08T18:05:29.815Z,46.62
2018-03-08T18:07:55.758Z,47.02
2018-03-08T18:10:21.681Z,47.28
2018-03-08T18:12:47.576Z,47.44
2018-03-08T18:15:16.647Z,47.58
2018-03-08T18:17:42.550Z,47.90
2018-03-08T18:20:11.960Z,48.11
2018-03-08T18:22:37.834Z,48.13
2018-03-08T18:25:07.010Z,48.01
2018-03-08T18:30:23.113Z,48.35
2018-03-08T18:32:48.994Z,48.46
2018-03-08T18:35:14.986Z,48.60
2018-03-08T18:37:40.915Z,48.74
2018-03-08T18:40:06.819Z,48.90
2018-03-08T18:42:32.678Z,48.85
2018-03-08T18:44:58.618Z,48.97
2018-03-08T18:47:24.485Z,49.04
2018-03-08T18:49:50.344Z,49.14
2018-03-08T18:52:16.225Z,49.09
2018-03-08T18:54:42.124Z,49.09
2018-03-08T18:57:07.988Z,49.23
2018-03-08T18:59:33.864Z,49.32
2018-03-08T19:01:59.738Z,49.42
2018-03-08T19:04:25.668Z,49.64
2018-03-08T19:06:51.578Z,49.59
2018-03-08T19:09:17.537Z,49.59
2018-03-08T19:11:43.411Z,49.69
2018-03-08T19:14:09.286Z,49.61
2018-03-08T19:16:35.203Z,49.16
2018-03-08T19:19:01.107Z,49.29
2018-03-08T19:21:26.996Z,49.41
2018-03-08T19:23:52.881Z,49.35
2018-03-08T19:26:18.801Z,49.35
2018-03-08T19:28:46.524Z,49.12
2018-03-08T19:31:12.456Z,48.94
2018-03-08T19:33:41.775Z,48.95
2018-03-08T19:36:07.648Z,48.72
2018-03-08T19:38:35.795Z,48.87
2018-03-08T19:41:01.666Z,48.70
2018-03-08T19:43:30.749Z,48.66
2018-03-08T19:45:56.626Z,48.59
2018-03-08T19:48:25.668Z,48.72
2018-03-08T19:50:51.566Z,48.57
2018-03-08T19:53:20.665Z,48.55
2018-03-08T19:55:46.559Z,48.57
2018-03-08T19:58:12.455Z,48.33
2018-03-08T20:00:38.372Z,48.39
2018-03-08T20:03:04.242Z,48.21
2018-03-08T20:05:33.464Z,48.27
2018-03-08T20:07:59.370Z,48.38
2018-03-08T20:10:26.030Z,48.38
2018-03-08T20:12:51.900Z,48.03
2018-03-08T20:15:21.653Z,48.15
2018-03-08T20:17:47.546Z,48.12
2018-03-08T20:20:16.935Z,48.12
2018-03-08T20:22:42.812Z,48.01
2018-03-08T20:25:10.327Z,47.90
2018-03-08T20:27:36.195Z,47.86
2018-03-08T20:30:04.727Z,47.89
2018-03-08T20:32:30.594Z,48.02
2018-03-08T20:34:56.469Z,48.05
2018-03-08T20:37:22.376Z,48.09
2018-03-08T20:39:48.256Z,48.11
2018-03-08T20:42:17.889Z,48.00
2018-03-08T20:44:43.774Z,48.09
2018-03-08T20:47:13.240Z,48.16
2018-03-08T20:49:40.992Z,48.43
2018-03-08T20:52:06.874Z,48.58
2018-03-08T20:54:32.751Z,48.78
2018-03-08T20:57:02.730Z,48.84
2018-03-08T20:59:28.610Z,49.08
2018-03-08T21:01:55.943Z,49.30
2018-03-08T21:04:21.853Z,49.82
2018-03-08T21:06:51.407Z,50.10
2018-03-08T21:09:17.285Z,50.55
2018-03-08T21:11:43.123Z,50.64
2018-03-08T21:14:09.013Z,50.88
2018-03-08T21:16:34.954Z,50.91
2018-03-08T21:19:02.210Z,51.13
2018-03-08T21:21:28.131Z,51.31
2018-03-08T21:23:57.255Z,51.27
2018-03-08T21:26:23.143Z,51.37
2018-03-08T21:31:40.971Z,51.29
2018-03-08T21:34:06.846Z,51.14
2018-03-08T21:36:32.770Z,51.03
2018-03-08T21:38:58.713Z,50.73
2018-03-08T21:41:24.654Z,50.75
2018-03-08T21:43:50.544Z,50.60
2018-03-08T21:46:16.492Z,50.93
2018-03-08T21:48:42.415Z,50.86
2018-03-08T21:51:08.322Z,51.15
2018-03-08T21:53:34.264Z,51.06
2018-03-08T21:56:00.201Z,51.15
2018-03-08T21:58:26.076Z,51.24
2018-03-08T22:00:52.001Z,51.51
2018-03-08T22:03:17.898Z,51.16
2018-03-08T22:05:43.820Z,50.83
2018-03-08T22:08:09.722Z,51.48
2018-03-08T22:10:35.579Z,51.75
2018-03-08T22:13:01.450Z,53.10
2018-03-08T22:15:27.439Z,57.80
2018-03-08T22:17:53.366Z,64.27
2018-03-08T22:20:21.288Z,65.92
2018-03-08T22:22:47.173Z,67.06
2018-03-08T22:25:13.087Z,67.05
2018-03-08T22:27:39.001Z,67.81
2018-03-08T22:30:05.088Z,68.75
2018-03-08T22:32:34.620Z,69.28
2018-03-08T22:35:00.492Z,70.13
2018-03-08T22:37:27.993Z,70.85
2018-03-08T22:39:53.885Z,71.79
2018-03-08T22:42:23.252Z,72.51
2018-03-08T22:44:49.134Z,73.13
2018-03-08T22:47:18.205Z,73.21
2018-03-08T22:49:44.094Z,72.98
2018-03-08T22:52:13.340Z,73.20
2018-03-08T22:54:39.226Z,73.40
2018-03-08T22:57:06.804Z,73.30
2018-03-08T22:59:32.746Z,72.96
2018-03-08T23:02:13.604Z,72.96
2018-03-08T23:04:39.522Z,73.38
2018-03-08T23:07:05.442Z,73.30
2018-03-08T23:09:31.322Z,73.16
2018-03-08T23:11:57.234Z,73.43
2018-03-08T23:14:23.145Z,74.01
2018-03-08T23:16:49.036Z,73.66
2018-03-08T23:19:14.955Z,73.51
2018-03-08T23:21:40.892Z,73.35
2018-03-08T23:24:06.802Z,73.34
2018-03-08T23:26:32.705Z,73.11
2018-03-08T23:28:58.635Z,72.82
2018-03-08T23:31:24.540Z,72.82
2018-03-08T23:33:52.198Z,73.12
2018-03-08T23:36:18.115Z,74.10
2018-03-08T23:38:44.006Z,74.50
2018-03-08T23:41:09.886Z,74.92
2018-03-08T23:43:35.825Z,75.07
2018-03-08T23:46:05.104Z,75.53
2018-03-08T23:48:30.949Z,75.76
2018-03-08T23:50:57.888Z,75.81
2018-03-08T23:53:23.764Z,74.89
2018-03-08T23:55:52.437Z,74.10
2018-03-08T23:58:18.334Z,73.81
